sensor_id;sensor_type;location;lat;lon;timestamp;pressure;altitude;pressure_sealevel;temperature;humidity
10145;BME280;5113;41.822;23.564;2023-07-16T00:02:58;-11537.97;;;21.79;100.00
10145;BME280;5113;41.822;23.564;2023-07-16T00:06:05;-11547.41;;;22.13;100.00
10145;BME280;5113;41.822;23.564;2023-07-16T00:09:11;-11555.88;;;22.43;100.00
10145;BME280;5113;41.822;23.564;2023-07-16T00:12:18;-11556.88;;;22.47;100.00
10145;BME280;5113;41.822;23.564;2023-07-16T00:15:24;-11557.56;;;22.49;100.00
10145;BME280;5113;41.822;23.564;2023-07-16T00:18:31;-11560.25;;;22.59;100.00
10145;BME280;5113;41.822;23.564;2023-07-16T00:21:38;-11562.50;;;22.67;100.00
10145;BME280;5113;41.822;23.564;2023-07-16T00:24:44;-11562.22;;;22.66;100.00
10145;BME280;5113;41.822;23.564;2023-07-16T00:27:50;-11555.31;;;22.41;100.00
10145;BME280;5113;41.822;23.564;2023-07-16T00:30:56;-11553.47;;;22.34;100.00
10145;BME280;5113;41.822;23.564;2023-07-16T00:34:04;-11538.94;;;21.82;100.00
10145;BME280;5113;41.822;23.564;2023-07-16T00:37:10;-11527.09;;;21.39;100.00
10145;BME280;5113;41.822;23.564;2023-07-16T00:40:17;-11532.59;;;21.59;100.00
10145;BME280;5113;41.822;23.564;2023-07-16T00:43:23;-11545.59;;;22.06;100.00
10145;BME280;5113;41.822;23.564;2023-07-16T00:46:29;-11531.75;;;21.56;100.00
10145;BME280;5113;41.822;23.564;2023-07-16T00:49:37;-11525.25;;;21.33;100.00
10145;BME280;5113;41.822;23.564;2023-07-16T00:52:44;-11532.03;;;21.57;100.00
10145;BME280;5113;41.822;23.564;2023-07-16T00:55:51;-11503.25;;;20.54;100.00
10145;BME280;5113;41.822;23.564;2023-07-16T00:58:58;-11497.59;;;20.33;100.00
10145;BME280;5113;41.822;23.564;2023-07-16T01:02:04;-11509.75;;;20.77;100.00
10145;BME280;5113;41.822;23.564;2023-07-16T01:05:13;-11512.28;;;20.86;100.00
10145;BME280;5113;41.822;23.564;2023-07-16T01:08:24;-11519.34;;;21.12;100.00
10145;BME280;5113;41.822;23.564;2023-07-16T01:11:34;-11506.62;;;20.66;100.00
10145;BME280;5113;41.822;23.564;2023-07-16T01:14:41;-11505.66;;;20.62;100.00
10145;BME280;5113;41.822;23.564;2023-07-16T01:17:47;-11514.41;;;20.94;100.00
10145;BME280;5113;41.822;23.564;2023-07-16T01:20:55;-11498.75;;;20.37;100.00
10145;BME280;5113;41.822;23.564;2023-07-16T01:24:14;-11499.44;;;20.40;100.00
10145;BME280;5113;41.822;23.564;2023-07-16T01:27:50;-11515.09;;;20.96;100.00
10145;BME280;5113;41.822;23.564;2023-07-16T01:31:04;-11498.31;;;20.36;100.00
10145;BME280;5113;41.822;23.564;2023-07-16T01:34:12;-11522.44;;;21.23;100.00
10145;BME280;5113;41.822;23.564;2023-07-16T01:37:20;-11526.41;;;21.37;100.00
10145;BME280;5113;41.822;23.564;2023-07-16T01:40:26;-11524.69;;;21.31;100.00
10145;BME280;5113;41.822;23.564;2023-07-16T01:43:32;-11512.56;;;20.87;100.00
10145;BME280;5113;41.822;23.564;2023-07-16T01:46:39;-11506.50;;;20.65;100.00
10145;BME280;5113;41.822;23.564;2023-07-16T01:49:46;-11508.06;;;20.71;100.00
10145;BME280;5113;41.822;23.564;2023-07-16T01:52:52;-11497.03;;;20.31;100.00
10145;BME280;5113;41.822;23.564;2023-07-16T01:56:00;-11497.19;;;20.32;100.00
10145;BME280;5113;41.822;23.564;2023-07-16T01:59:07;-11486.47;;;19.93;100.00
10145;BME280;5113;41.822;23.564;2023-07-16T02:02:14;-11503.25;;;20.54;100.00
10145;BME280;5113;41.822;23.564;2023-07-16T02:05:21;-11519.06;;;21.10;100.00
10145;BME280;5113;41.822;23.564;2023-07-16T02:08:27;-11527.81;;;21.42;100.00
10145;BME280;5113;41.822;23.564;2023-07-16T02:11:34;-11529.78;;;21.49;100.00
10145;BME280;5113;41.822;23.564;2023-07-16T02:14:40;-11512.00;;;20.85;100.00
10145;BME280;5113;41.822;23.564;2023-07-16T02:17:48;-11511.28;;;20.83;100.00
10145;BME280;5113;41.822;23.564;2023-07-16T02:20:54;-11514.25;;;20.93;100.00
10145;BME280;5113;41.822;23.564;2023-07-16T02:24:00;-11505.78;;;20.63;100.00
10145;BME280;5113;41.822;23.564;2023-07-16T02:27:07;-11508.63;;;20.73;100.00
10145;BME280;5113;41.822;23.564;2023-07-16T02:30:14;-11499.44;;;20.40;100.00
10145;BME280;5113;41.822;23.564;2023-07-16T02:33:22;-11493.94;;;20.20;100.00
10145;BME280;5113;41.822;23.564;2023-07-16T02:36:28;-11482.25;;;19.78;100.00
10145;BME280;5113;41.822;23.564;2023-07-16T02:39:34;-11503.25;;;20.54;100.00
10145;BME280;5113;41.822;23.564;2023-07-16T02:42:40;-11494.38;;;20.22;100.00
10145;BME280;5113;41.822;23.564;2023-07-16T02:45:46;-11498.44;;;20.36;100.00
10145;BME280;5113;41.822;23.564;2023-07-16T02:48:54;-11499.59;;;20.40;100.00
10145;BME280;5113;41.822;23.564;2023-07-16T02:52:00;-11478.16;;;19.63;100.00
10145;BME280;5113;41.822;23.564;2023-07-16T02:55:07;-11487.31;;;19.96;100.00
10145;BME280;5113;41.822;23.564;2023-07-16T02:58:13;-11492.81;;;20.16;100.00
10145;BME280;5113;41.822;23.564;2023-07-16T03:01:19;-11495.22;;;20.25;100.00
10145;BME280;5113;41.822;23.564;2023-07-16T03:04:27;-11499.44;;;20.40;100.00
10145;BME280;5113;41.822;23.564;2023-07-16T03:07:34;-11499.59;;;20.40;100.00
10145;BME280;5113;41.822;23.564;2023-07-16T03:10:40;-11502.97;;;20.53;100.00
10145;BME280;5113;41.822;23.564;2023-07-16T03:13:46;-11514.13;;;20.93;100.00
10145;BME280;5113;41.822;23.564;2023-07-16T03:16:53;-11507.22;;;20.68;100.00
10145;BME280;5113;41.822;23.564;2023-07-16T03:20:01;-11504.66;;;20.59;100.00
10145;BME280;5113;41.822;23.564;2023-07-16T03:23:08;-11510.44;;;20.80;100.00
10145;BME280;5113;41.822;23.564;2023-07-16T03:26:14;-11508.63;;;20.73;100.00
10145;BME280;5113;41.822;23.564;2023-07-16T03:29:22;-11516.38;;;21.01;100.00
10145;BME280;5113;41.822;23.564;2023-07-16T03:32:28;-11506.94;;;20.67;100.00
10145;BME280;5113;41.822;23.564;2023-07-16T03:35:55;-11511.16;;;20.82;100.00
10145;BME280;5113;41.822;23.564;2023-07-16T03:39:02;-11509.03;;;20.74;100.00
10145;BME280;5113;41.822;23.564;2023-07-16T03:42:09;-11513.41;;;20.90;100.00
10145;BME280;5113;41.822;23.564;2023-07-16T03:45:15;-11511.16;;;20.82;100.00
10145;BME280;5113;41.822;23.564;2023-07-16T03:48:21;-11513.13;;;20.89;100.00
10145;BME280;5113;41.822;23.564;2023-07-16T03:51:28;-11531.75;;;21.56;100.00
10145;BME280;5113;41.822;23.564;2023-07-16T03:54:34;-11518.22;;;21.07;100.00
10145;BME280;5113;41.822;23.564;2023-07-16T03:57:40;-11526.13;;;21.36;100.00
10145;BME280;5113;41.822;23.564;2023-07-16T04:00:47;-11539.38;;;21.84;100.00
10145;BME280;5113;41.822;23.564;2023-07-16T04:03:53;-11521.03;;;21.18;100.00
10145;BME280;5113;41.822;23.564;2023-07-16T04:07:00;-11514.97;;;20.96;100.00
10145;BME280;5113;41.822;23.564;2023-07-16T04:10:07;-11514.41;;;20.94;100.00
10145;BME280;5113;41.822;23.564;2023-07-16T04:13:13;-11530.34;;;21.51;100.00
10145;BME280;5113;41.822;23.564;2023-07-16T04:16:19;-11520.59;;;21.16;100.00
10145;BME280;5113;41.822;23.564;2023-07-16T04:19:26;-11520.47;;;21.16;100.00
10145;BME280;5113;41.822;23.564;2023-07-16T04:22:34;-11524.41;;;21.30;100.00
10145;BME280;5113;41.822;23.564;2023-07-16T04:25:41;-11512.56;;;20.87;100.00
10145;BME280;5113;41.822;23.564;2023-07-16T04:28:47;-11516.50;;;21.01;100.00
10145;BME280;5113;41.822;23.564;2023-07-16T04:31:53;-11509.31;;;20.75;100.00
10145;BME280;5113;41.822;23.564;2023-07-16T04:35:00;-11511.44;;;20.83;100.00
10145;BME280;5113;41.822;23.564;2023-07-16T04:38:08;-11524.56;;;21.30;100.00
10145;BME280;5113;41.822;23.564;2023-07-16T04:41:16;-11536.12;;;21.72;100.00
10145;BME280;5113;41.822;23.564;2023-07-16T04:44:22;-11538.38;;;21.80;100.00
10145;BME280;5113;41.822;23.564;2023-07-16T04:47:28;-11543.59;;;21.99;100.00
10145;BME280;5113;41.822;23.564;2023-07-16T04:50:34;-11554.91;;;22.39;100.00
10145;BME280;5113;41.822;23.564;2023-07-16T04:53:41;-11551.22;;;22.26;100.00
10145;BME280;5113;41.822;23.564;2023-07-16T04:56:47;-11552.06;;;22.29;100.00
10145;BME280;5113;41.822;23.564;2023-07-16T04:59:54;-11579.88;;;23.29;100.00
10145;BME280;5113;41.822;23.564;2023-07-16T05:03:00;-11566.59;;;22.82;100.00
10145;BME280;5113;41.822;23.564;2023-07-16T05:06:06;-11563.34;;;22.70;100.00
10145;BME280;5113;41.822;23.564;2023-07-16T05:09:14;-11572.13;;;23.01;100.00
10145;BME280;5113;41.822;23.564;2023-07-16T05:12:20;-11559.69;;;22.57;100.00
10145;BME280;5113;41.822;23.564;2023-07-16T05:15:26;-11567.03;;;22.83;100.00
10145;BME280;5113;41.822;23.564;2023-07-16T05:18:33;-11575.50;;;23.14;100.00
10145;BME280;5113;41.822;23.564;2023-07-16T05:21:39;-11594.97;;;23.84;100.00
10145;BME280;5113;41.822;23.564;2023-07-16T05:24:46;-11580.00;;;23.30;100.00
10145;BME280;5113;41.822;23.564;2023-07-16T05:27:53;-11584.38;;;23.46;100.00
10145;BME280;5113;41.822;23.564;2023-07-16T05:31:00;-11593.00;;;23.77;100.00
10145;BME280;5113;41.822;23.564;2023-07-16T05:34:06;-11610.22;;;24.39;100.00
10145;BME280;5113;41.822;23.564;2023-07-16T05:37:13;-11622.66;;;24.83;100.00
10145;BME280;5113;41.822;23.564;2023-07-16T05:40:20;-11613.63;;;24.51;100.00
10145;BME280;5113;41.822;23.564;2023-07-16T05:43:27;-11602.59;;;24.11;100.00
10145;BME280;5113;41.822;23.564;2023-07-16T05:46:33;-11634.50;;;25.26;100.00
10145;BME280;5113;41.822;23.564;2023-07-16T05:49:40;-11621.53;;;24.79;100.00
10145;BME280;5113;41.822;23.564;2023-07-16T05:52:46;-11616.44;;;24.61;100.00
10145;BME280;5113;41.822;23.564;2023-07-16T05:55:55;-11619.97;;;24.74;100.00
10145;BME280;5113;41.822;23.564;2023-07-16T05:59:01;-11619.69;;;24.73;100.00
10145;BME280;5113;41.822;23.564;2023-07-16T06:02:08;-11643.13;;;25.57;100.00
10145;BME280;5113;41.822;23.564;2023-07-16T06:05:14;-11632.09;;;25.17;100.00
10145;BME280;5113;41.822;23.564;2023-07-16T06:08:20;-11652.31;;;25.90;100.00
10145;BME280;5113;41.822;23.564;2023-07-16T06:11:27;-11636.50;;;25.33;100.00
10145;BME280;5113;41.822;23.564;2023-07-16T06:14:34;-11632.37;;;25.18;100.00
10145;BME280;5113;41.822;23.564;2023-07-16T06:17:40;-11642.41;;;25.54;100.00
10145;BME280;5113;41.822;23.564;2023-07-16T06:20:46;-11650.19;;;25.82;100.00
10145;BME280;5113;41.822;23.564;2023-07-16T06:23:52;-11672.91;;;26.64;96.83
10145;BME280;5113;41.822;23.564;2023-07-16T06:27:00;-11699.03;;;27.58;93.55
10145;BME280;5113;41.822;23.564;2023-07-16T06:30:07;-11701.88;;;27.68;87.87
10145;BME280;5113;41.822;23.564;2023-07-16T06:33:13;-11683.94;;;27.04;89.21
10145;BME280;5113;41.822;23.564;2023-07-16T06:36:19;-11674.03;;;26.68;94.56
10145;BME280;5113;41.822;23.564;2023-07-16T06:39:26;-11668.53;;;26.48;95.17
10145;BME280;5113;41.822;23.564;2023-07-16T06:42:33;-11692.97;;;27.36;90.79
10145;BME280;5113;41.822;23.564;2023-07-16T06:45:40;-11698.06;;;27.54;87.75
10145;BME280;5113;41.822;23.564;2023-07-16T06:48:46;-11710.19;;;27.98;83.18
10145;BME280;5113;41.822;23.564;2023-07-16T06:51:52;-11695.09;;;27.44;86.60
10145;BME280;5113;41.822;23.564;2023-07-16T06:54:58;-11712.75;;;28.07;83.08
10145;BME280;5113;41.822;23.564;2023-07-16T06:58:10;-11685.91;;;27.11;85.13
10145;BME280;5113;41.822;23.564;2023-07-16T07:01:16;-11700.88;;;27.65;83.43
10145;BME280;5113;41.822;23.564;2023-07-16T07:04:23;-11710.78;;;28.00;83.22
10145;BME280;5113;41.822;23.564;2023-07-16T07:07:29;-11687.75;;;27.17;87.11
10145;BME280;5113;41.822;23.564;2023-07-16T07:10:35;-11731.25;;;28.74;79.44
10145;BME280;5113;41.822;23.564;2023-07-16T07:13:44;-11740.28;;;29.06;81.64
10145;BME280;5113;41.822;23.564;2023-07-16T07:16:51;-11747.63;;;29.33;78.38
10145;BME280;5113;41.822;23.564;2023-07-16T07:19:57;-11746.94;;;29.30;77.92
10145;BME280;5113;41.822;23.564;2023-07-16T07:23:04;-11756.25;;;29.64;73.50
10145;BME280;5113;41.822;23.564;2023-07-16T07:26:10;-11748.06;;;29.34;74.69
10145;BME280;5113;41.822;23.564;2023-07-16T07:29:18;-11733.22;;;28.81;77.64
10145;BME280;5113;41.822;23.564;2023-07-16T07:32:24;-11747.94;;;29.34;74.21
10145;BME280;5113;41.822;23.564;2023-07-16T07:35:31;-11729.97;;;28.69;78.18
10145;BME280;5113;41.822;23.564;2023-07-16T07:38:37;-11753.00;;;29.52;74.55
10145;BME280;5113;41.822;23.564;2023-07-16T07:41:43;-11747.34;;;29.32;74.58
10145;BME280;5113;41.822;23.564;2023-07-16T07:44:51;-11796.94;;;31.10;68.90
10145;BME280;5113;41.822;23.564;2023-07-16T07:47:57;-11758.53;;;29.72;71.62
10145;BME280;5113;41.822;23.564;2023-07-16T07:51:04;-11789.03;;;30.81;67.95
10145;BME280;5113;41.822;23.564;2023-07-16T07:54:10;-11762.75;;;29.87;70.50
10145;BME280;5113;41.822;23.564;2023-07-16T07:57:16;-11768.69;;;30.08;67.05
10145;BME280;5113;41.822;23.564;2023-07-16T08:00:23;-11803.16;;;31.32;67.04
10145;BME280;5113;41.822;23.564;2023-07-16T08:03:30;-11775.06;;;30.31;68.86
10145;BME280;5113;41.822;23.564;2023-07-16T08:06:37;-11771.66;;;30.19;66.82
10145;BME280;5113;41.822;23.564;2023-07-16T08:09:43;-11804.03;;;31.35;62.92
10145;BME280;5113;41.822;23.564;2023-07-16T08:12:49;-11803.44;;;31.33;63.18
10145;BME280;5113;41.822;23.564;2023-07-16T08:15:57;-11819.84;;;31.92;61.05
10145;BME280;5113;41.822;23.564;2023-07-16T08:19:03;-11798.38;;;31.15;63.02
10145;BME280;5113;41.822;23.564;2023-07-16T08:22:09;-11818.00;;;31.85;59.70
10145;BME280;5113;41.822;23.564;2023-07-16T08:25:16;-11790.88;;;30.88;61.41
10145;BME280;5113;41.822;23.564;2023-07-16T08:28:22;-11825.50;;;32.12;58.39
10145;BME280;5113;41.822;23.564;2023-07-16T08:31:30;-11791.31;;;30.90;60.58
10145;BME280;5113;41.822;23.564;2023-07-16T08:34:37;-11825.34;;;32.12;60.87
10145;BME280;5113;41.822;23.564;2023-07-16T08:37:43;-11807.41;;;31.47;59.67
10145;BME280;5113;41.822;23.564;2023-07-16T08:40:50;-11816.03;;;31.78;59.51
10145;BME280;5113;41.822;23.564;2023-07-16T08:43:56;-11826.50;;;32.16;58.08
10145;BME280;5113;41.822;23.564;2023-07-16T08:47:05;-11807.56;;;31.48;60.02
10145;BME280;5113;41.822;23.564;2023-07-16T08:50:12;-11833.28;;;32.40;57.63
10145;BME280;5113;41.822;23.564;2023-07-16T08:53:19;-11804.44;;;31.37;59.06
10145;BME280;5113;41.822;23.564;2023-07-16T08:56:25;-11804.88;;;31.38;58.12
10145;BME280;5113;41.822;23.564;2023-07-16T08:59:32;-11823.81;;;32.06;56.70
10145;BME280;5113;41.822;23.564;2023-07-16T09:02:40;-11871.44;;;33.77;54.53
10145;BME280;5113;41.822;23.564;2023-07-16T09:05:47;-11802.59;;;31.30;56.97
10145;BME280;5113;41.822;23.564;2023-07-16T09:08:53;-11827.91;;;32.21;55.49
10145;BME280;5113;41.822;23.564;2023-07-16T09:11:59;-11844.72;;;32.81;55.30
10145;BME280;5113;41.822;23.564;2023-07-16T09:15:07;-11867.03;;;33.62;54.43
10145;BME280;5113;41.822;23.564;2023-07-16T09:18:19;-11847.25;;;32.91;54.37
10145;BME280;5113;41.822;23.564;2023-07-16T09:21:26;-11857.16;;;33.26;52.79
10145;BME280;5113;41.822;23.564;2023-07-16T09:24:36;-11852.63;;;33.10;53.78
10145;BME280;5113;41.822;23.564;2023-07-16T09:27:42;-11897.00;;;34.69;52.60
10145;BME280;5113;41.822;23.564;2023-07-16T09:30:51;-11850.22;;;33.01;53.58
10145;BME280;5113;41.822;23.564;2023-07-16T09:33:59;-11825.78;;;32.13;54.04
10145;BME280;5113;41.822;23.564;2023-07-16T09:37:06;-11875.25;;;33.91;50.52
10145;BME280;5113;41.822;23.564;2023-07-16T09:40:12;-11870.56;;;33.74;50.06
10145;BME280;5113;41.822;23.564;2023-07-16T09:43:19;-11878.63;;;34.03;49.68
10145;BME280;5113;41.822;23.564;2023-07-16T09:46:27;-11848.38;;;32.95;49.59
10145;BME280;5113;41.822;23.564;2023-07-16T09:49:34;-11886.56;;;34.32;48.27
10145;BME280;5113;41.822;23.564;2023-07-16T09:52:41;-11897.56;;;34.71;44.94
10145;BME280;5113;41.822;23.564;2023-07-16T09:55:48;-11919.06;;;35.49;46.92
10145;BME280;5113;41.822;23.564;2023-07-16T09:58:56;-11858.72;;;33.32;49.34
10145;BME280;5113;41.822;23.564;2023-07-16T10:02:05;-11908.88;;;35.12;47.27
10145;BME280;5113;41.822;23.564;2023-07-16T10:05:14;-11907.75;;;35.08;46.31
10145;BME280;5113;41.822;23.564;2023-07-16T10:08:21;-11873.13;;;33.84;46.53
10145;BME280;5113;41.822;23.564;2023-07-16T10:11:27;-11912.84;;;35.26;44.98
10145;BME280;5113;41.822;23.564;2023-07-16T10:14:39;-11880.91;;;34.11;43.50
10145;BME280;5113;41.822;23.564;2023-07-16T10:17:50;-11876.66;;;33.96;42.67
10145;BME280;5113;41.822;23.564;2023-07-16T10:21:02;-11897.84;;;34.72;40.62
10145;BME280;5113;41.822;23.564;2023-07-16T10:24:16;-11863.38;;;33.49;41.22
10145;BME280;5113;41.822;23.564;2023-07-16T10:27:29;-11891.06;;;34.48;41.64
10145;BME280;5113;41.822;23.564;2023-07-16T10:30:35;-11879.91;;;34.08;43.21
10145;BME280;5113;41.822;23.564;2023-07-16T10:33:41;-11916.09;;;35.38;43.43
10145;BME280;5113;41.822;23.564;2023-07-16T10:36:50;-11922.16;;;35.60;40.71
10145;BME280;5113;41.822;23.564;2023-07-16T10:39:57;-11933.75;;;36.01;38.58
10145;BME280;5113;41.822;23.564;2023-07-16T10:43:06;-11908.59;;;35.11;40.09
10145;BME280;5113;41.822;23.564;2023-07-16T10:46:13;-11937.28;;;36.14;37.04
10145;BME280;5113;41.822;23.564;2023-07-16T10:49:26;-11926.41;;;35.75;40.27
10145;BME280;5113;41.822;23.564;2023-07-16T10:52:35;-11956.09;;;36.82;39.28
10145;BME280;5113;41.822;23.564;2023-07-16T10:55:42;-11924.28;;;35.67;40.34
10145;BME280;5113;41.822;23.564;2023-07-16T10:58:49;-11935.75;;;36.09;41.20
10145;BME280;5113;41.822;23.564;2023-07-16T11:01:56;-11948.88;;;36.56;40.48
10145;BME280;5113;41.822;23.564;2023-07-16T11:05:03;-11912.28;;;35.24;40.89
10145;BME280;5113;41.822;23.564;2023-07-16T11:08:11;-11926.97;;;35.77;39.43
10145;BME280;5113;41.822;23.564;2023-07-16T11:11:30;-11911.72;;;35.22;39.87
10145;BME280;5113;41.822;23.564;2023-07-16T11:14:36;-11932.06;;;35.95;39.81
10145;BME280;5113;41.822;23.564;2023-07-16T11:17:48;-11932.63;;;35.97;37.72
10145;BME280;5113;41.822;23.564;2023-07-16T11:20:55;-11917.66;;;35.44;39.67
10145;BME280;5113;41.822;23.564;2023-07-16T11:24:09;-11906.47;;;35.03;39.63
10145;BME280;5113;41.822;23.564;2023-07-16T11:27:18;-11969.94;;;37.31;39.29
10145;BME280;5113;41.822;23.564;2023-07-16T11:30:25;-11878.63;;;34.03;40.03
10145;BME280;5113;41.822;23.564;2023-07-16T11:33:35;-11897.00;;;34.69;40.24
10145;BME280;5113;41.822;23.564;2023-07-16T11:36:41;-11917.94;;;35.45;39.75
10145;BME280;5113;41.822;23.564;2023-07-16T11:39:49;-11924.16;;;35.67;39.41
10145;BME280;5113;41.822;23.564;2023-07-16T11:42:56;-11930.38;;;35.89;38.96
10145;BME280;5113;41.822;23.564;2023-07-16T11:46:02;-11914.69;;;35.33;38.28
10145;BME280;5113;41.822;23.564;2023-07-16T11:49:09;-11937.44;;;36.15;38.32
10145;BME280;5113;41.822;23.564;2023-07-16T11:52:18;-11913.69;;;35.29;38.72
10145;BME280;5113;41.822;23.564;2023-07-16T11:55:27;-11929.94;;;35.88;38.98
10145;BME280;5113;41.822;23.564;2023-07-16T11:58:33;-11904.22;;;34.95;40.11
10145;BME280;5113;41.822;23.564;2023-07-16T12:01:40;-11910.31;;;35.17;39.84
10145;BME280;5113;41.822;23.564;2023-07-16T12:04:46;-11918.78;;;35.48;38.77
10145;BME280;5113;41.822;23.564;2023-07-16T12:07:53;-11899.56;;;34.78;41.03
10145;BME280;5113;41.822;23.564;2023-07-16T12:11:01;-11897.00;;;34.69;40.73
10145;BME280;5113;41.822;23.564;2023-07-16T12:14:07;-11909.72;;;35.15;40.66
10145;BME280;5113;41.822;23.564;2023-07-16T12:17:14;-11921.75;;;35.58;38.49
10145;BME280;5113;41.822;23.564;2023-07-16T12:20:20;-11931.78;;;35.94;39.63
10145;BME280;5113;41.822;23.564;2023-07-16T12:23:26;-11954.69;;;36.77;38.56
10145;BME280;5113;41.822;23.564;2023-07-16T12:26:34;-11956.81;;;36.84;38.24
10145;BME280;5113;41.822;23.564;2023-07-16T12:29:40;-11972.63;;;37.41;37.19
10145;BME280;5113;41.822;23.564;2023-07-16T12:32:46;-11895.31;;;34.63;41.25
10145;BME280;5113;41.822;23.564;2023-07-16T12:35:52;-11968.25;;;37.25;38.36
10145;BME280;5113;41.822;23.564;2023-07-16T12:38:59;-11983.53;;;37.80;37.73
10145;BME280;5113;41.822;23.564;2023-07-16T12:42:07;-11935.31;;;36.07;39.61
10145;BME280;5113;41.822;23.564;2023-07-16T12:45:14;-11977.00;;;37.57;37.96
10145;BME280;5113;41.822;23.564;2023-07-16T12:48:20;-11962.16;;;37.03;38.79
10145;BME280;5113;41.822;23.564;2023-07-16T12:51:26;-11934.31;;;36.03;39.93
10145;BME280;5113;41.822;23.564;2023-07-16T12:54:32;-11971.78;;;37.38;38.63
10145;BME280;5113;41.822;23.564;2023-07-16T12:57:40;-11929.81;;;35.87;39.39
10145;BME280;5113;41.822;23.564;2023-07-16T13:00:47;-11918.50;;;35.47;40.32
10145;BME280;5113;41.822;23.564;2023-07-16T13:03:53;-11961.75;;;37.02;38.68
10145;BME280;5113;41.822;23.564;2023-07-16T13:06:59;-11923.88;;;35.66;39.23
10145;BME280;5113;41.822;23.564;2023-07-16T13:10:07;-11929.94;;;35.88;39.72
10145;BME280;5113;41.822;23.564;2023-07-16T13:13:28;-11919.34;;;35.50;39.90
10145;BME280;5113;41.822;23.564;2023-07-16T13:16:34;-11958.06;;;36.89;37.57
10145;BME280;5113;41.822;23.564;2023-07-16T13:19:41;-11956.38;;;36.83;38.81
10145;BME280;5113;41.822;23.564;2023-07-16T13:22:49;-11949.59;;;36.58;38.78
10145;BME280;5113;41.822;23.564;2023-07-16T13:25:56;-11943.38;;;36.36;38.98
10145;BME280;5113;41.822;23.564;2023-07-16T13:29:03;-11942.25;;;36.32;40.19
10145;BME280;5113;41.822;23.564;2023-07-16T13:32:09;-11932.34;;;35.96;39.27
10145;BME280;5113;41.822;23.564;2023-07-16T13:35:15;-11948.31;;;36.54;40.04
10145;BME280;5113;41.822;23.564;2023-07-16T13:38:22;-11937.88;;;36.16;39.13
10145;BME280;5113;41.822;23.564;2023-07-16T13:41:28;-11886.56;;;34.32;41.10
10145;BME280;5113;41.822;23.564;2023-07-16T13:44:36;-11922.31;;;35.60;39.31
10145;BME280;5113;41.822;23.564;2023-07-16T13:47:42;-11881.59;;;34.14;41.68
10145;BME280;5113;41.822;23.564;2023-07-16T13:50:48;-11892.63;;;34.54;41.13
10145;BME280;5113;41.822;23.564;2023-07-16T13:53:55;-11875.97;;;33.94;41.05
10145;BME280;5113;41.822;23.564;2023-07-16T13:57:01;-11923.72;;;35.65;39.30
10145;BME280;5113;41.822;23.564;2023-07-16T14:00:10;-11946.34;;;36.47;36.61
10145;BME280;5113;41.822;23.564;2023-07-16T14:03:17;-11904.66;;;34.97;38.42
10145;BME280;5113;41.822;23.564;2023-07-16T14:06:23;-11949.03;;;36.56;38.33
10145;BME280;5113;41.822;23.564;2023-07-16T14:09:30;-11951.00;;;36.63;38.02
10145;BME280;5113;41.822;23.564;2023-07-16T14:12:36;-11984.78;;;37.85;35.95
10145;BME280;5113;41.822;23.564;2023-07-16T14:15:44;-11947.06;;;36.49;37.26
10145;BME280;5113;41.822;23.564;2023-07-16T14:18:51;-11961.31;;;37.00;37.82
10145;BME280;5113;41.822;23.564;2023-07-16T14:21:58;-11937.56;;;36.15;38.33
10145;BME280;5113;41.822;23.564;2023-07-16T14:25:05;-11899.12;;;34.77;42.21
10145;BME280;5113;41.822;23.564;2023-07-16T14:28:14;-11909.72;;;35.15;42.13
10145;BME280;5113;41.822;23.564;2023-07-16T14:31:21;-11899.28;;;34.77;42.29
10145;BME280;5113;41.822;23.564;2023-07-16T14:34:28;-11922.59;;;35.61;41.26
10145;BME280;5113;41.822;23.564;2023-07-16T14:37:34;-11878.94;;;34.04;42.84
10145;BME280;5113;41.822;23.564;2023-07-16T14:40:40;-11881.75;;;34.15;42.73
10145;BME280;5113;41.822;23.564;2023-07-16T14:43:48;-11893.91;;;34.58;43.54
10145;BME280;5113;41.822;23.564;2023-07-16T14:46:56;-11893.06;;;34.55;43.90
10145;BME280;5113;41.822;23.564;2023-07-16T14:50:03;-11889.09;;;34.41;44.44
10145;BME280;5113;41.822;23.564;2023-07-16T14:53:10;-11923.31;;;35.64;42.67
10145;BME280;5113;41.822;23.564;2023-07-16T14:56:17;-11894.03;;;34.59;45.97
10145;BME280;5113;41.822;23.564;2023-07-16T14:59:24;-11897.44;;;34.71;45.13
10145;BME280;5113;41.822;23.564;2023-07-16T15:02:31;-11860.84;;;33.39;49.29
10145;BME280;5113;41.822;23.564;2023-07-16T15:05:37;-11862.94;;;33.47;49.42
10145;BME280;5113;41.822;23.564;2023-07-16T15:08:43;-11835.97;;;32.50;52.92
10145;BME280;5113;41.822;23.564;2023-07-16T15:11:50;-11851.78;;;33.07;52.39
10145;BME280;5113;41.822;23.564;2023-07-16T15:14:56;-11932.91;;;35.98;46.08
10145;BME280;5113;41.822;23.564;2023-07-16T15:18:04;-11968.53;;;37.26;44.44
10145;BME280;5113;41.822;23.564;2023-07-16T15:21:11;-11888.25;;;34.38;48.68
10145;BME280;5113;41.822;23.564;2023-07-16T15:24:17;-11867.63;;;33.64;51.33
10145;BME280;5113;41.822;23.564;2023-07-16T15:27:24;-11925.56;;;35.72;47.21
10145;BME280;5113;41.822;23.564;2023-07-16T15:30:30;-11959.34;;;36.93;44.85
10145;BME280;5113;41.822;23.564;2023-07-16T15:33:38;-11940.53;;;36.26;46.24
10145;BME280;5113;41.822;23.564;2023-07-16T15:36:45;-11922.16;;;35.60;46.66
10145;BME280;5113;41.822;23.564;2023-07-16T15:39:51;-11949.72;;;36.59;44.56
10145;BME280;5113;41.822;23.564;2023-07-16T15:42:57;-11934.03;;;36.02;46.35
10145;BME280;5113;41.822;23.564;2023-07-16T15:46:04;-11871.00;;;33.76;50.33
10145;BME280;5113;41.822;23.564;2023-07-16T15:49:11;-11854.19;;;33.15;52.23
10145;BME280;5113;41.822;23.564;2023-07-16T15:52:17;-11826.34;;;32.15;55.66
10145;BME280;5113;41.822;23.564;2023-07-16T15:55:24;-11824.94;;;32.10;55.42
10145;BME280;5113;41.822;23.564;2023-07-16T15:58:30;-11830.16;;;32.29;54.88
10145;BME280;5113;41.822;23.564;2023-07-16T16:01:37;-11836.81;;;32.53;56.13
10145;BME280;5113;41.822;23.564;2023-07-16T16:04:45;-11834.53;;;32.45;55.01
10145;BME280;5113;41.822;23.564;2023-07-16T16:08:13;-11825.22;;;32.11;56.61
10145;BME280;5113;41.822;23.564;2023-07-16T16:11:20;-11808.81;;;31.52;57.73
10145;BME280;5113;41.822;23.564;2023-07-16T16:14:26;-11809.53;;;31.55;57.94